Time;durP1;ratioP1;P1;durP2;ratioP2;P2;SDS_P1;SDS_P2;PMS_P1;PMS_P2;Temp;Humidity;BMP_temperature;BMP_pressure;BME280_temperature;BME280_humidity;BME280_pressure;Samples;Min_cycle;Max_cycle;Signal;HPM_P1;HPM_P2
2024/01/22 00:02:21;;;;;;;0.20;0.10;;;;;;;3.28;100.00;100736.28;5053238;28;20466;-52
2024/01/22 00:04:47;;;;;;;0.20;0.10;;;;;;;3.42;100.00;100741.63;5052963;28;20908;-52
2024/01/22 00:07:14;;;;;;;0.20;0.10;;;;;;;3.55;100.00;100730.34;5053089;28;20941;-52
2024/01/22 00:09:40;;;;;;;0.20;0.10;;;;;;;3.66;100.00;100733.06;5052818;28;20450;-52
2024/01/22 00:12:07;;;;;;;0.20;0.10;;;;;;;3.74;100.00;100726.13;5053079;28;20467;-52
2024/01/22 00:14:33;;;;;;;0.20;0.10;;;;;;;3.81;100.00;100727.00;5052487;28;20461;-52
2024/01/22 00:17:00;;;;;;;0.20;0.10;;;;;;;3.77;100.00;100720.88;5052588;28;20482;-51
2024/01/22 00:19:26;;;;;;;0.20;0.10;;;;;;;3.93;100.00;100716.56;5052810;28;20508;-52
2024/01/22 00:21:53;;;;;;;0.20;0.10;;;;;;;4.02;100.00;100719.25;5034628;28;20466;-52
2024/01/22 00:24:19;;;;;;;0.20;0.10;;;;;;;4.04;100.00;100721.88;5052665;28;20526;-52
2024/01/22 00:26:46;;;;;;;0.20;0.10;;;;;;;4.08;100.00;100723.66;5035028;28;20457;-52
2024/01/22 00:29:12;;;;;;;0.20;0.10;;;;;;;4.31;100.00;100719.38;5052913;28;20455;-52
2024/01/22 00:31:39;;;;;;;1.80;1.70;;;;;;;4.35;100.00;100705.34;5053482;28;20470;-52
2024/01/22 00:34:05;;;;;;;0.20;0.20;;;;;;;4.29;100.00;100699.19;5035550;28;20486;-52
2024/01/22 00:36:32;;;;;;;0.20;0.10;;;;;;;4.45;100.00;100711.53;5052975;28;20454;-52
2024/01/22 00:38:58;;;;;;;0.20;0.10;;;;;;;4.43;100.00;100695.72;5035094;28;20469;-52
2024/01/22 00:41:25;;;;;;;0.20;0.10;;;;;;;4.34;100.00;100690.44;5053212;28;20619;-52
2024/01/22 00:43:51;;;;;;;0.20;0.10;;;;;;;4.39;100.00;100682.56;5053444;28;20854;-52
2024/01/22 00:46:18;;;;;;;0.20;0.13;;;;;;;4.43;100.00;100676.44;5036093;28;20536;-52
2024/01/22 00:48:44;;;;;;;0.20;0.10;;;;;;;4.53;100.00;100672.97;5053206;28;20458;-52
2024/01/22 00:51:11;;;;;;;0.20;0.10;;;;;;;4.61;100.00;100663.31;5053517;28;20490;-52
2024/01/22 00:53:38;;;;;;;0.20;0.10;;;;;;;4.55;100.00;100659.78;5053873;28;20978;-52
2024/01/22 00:56:05;;;;;;;0.20;0.10;;;;;;;4.55;100.00;100659.78;5053273;28;20455;-52
2024/01/22 00:58:35;;;;;;;0.20;0.20;;;;;;;4.54;100.00;100651.03;5057679;28;20457;-52
2024/01/22 01:01:02;;;;;;;0.20;0.20;;;;;;;4.52;100.00;100655.38;5057577;28;20532;-52
2024/01/22 01:03:28;;;;;;;0.20;0.10;;;;;;;4.49;100.00;100654.50;5057612;28;20469;-52
2024/01/22 01:05:55;;;;;;;0.20;0.10;;;;;;;4.39;100.00;100656.25;5057288;28;20547;-52
2024/01/22 01:08:22;;;;;;;0.20;0.10;;;;;;;4.47;100.00;100652.75;5057305;28;20438;-52
2024/01/22 01:10:48;;;;;;;0.20;0.10;;;;;;;4.41;100.00;100651.88;5057132;28;20471;-52
2024/01/22 01:13:15;;;;;;;0.20;0.10;;;;;;;4.56;100.00;100651.91;5058088;28;20452;-52
2024/01/22 01:15:41;;;;;;;0.20;0.10;;;;;;;4.32;100.00;100655.34;5058186;28;20453;-52
2024/01/22 01:18:08;;;;;;;0.30;0.20;;;;;;;4.25;100.00;100660.56;5058430;28;20451;-53
2024/01/22 01:20:34;;;;;;;0.20;0.10;;;;;;;4.21;100.00;100659.69;5039869;28;20451;-52
2024/01/22 01:23:01;;;;;;;0.20;0.10;;;;;;;4.43;100.00;100648.34;5058039;28;21012;-52
2024/01/22 01:25:27;;;;;;;0.20;0.10;;;;;;;4.40;100.00;100644.84;5057985;28;20490;-52
2024/01/22 01:27:54;;;;;;;0.20;0.10;;;;;;;4.34;100.00;100642.19;5058015;28;20454;-52
2024/01/22 01:30:21;;;;;;;0.20;0.10;;;;;;;4.43;100.00;100636.97;5057879;28;20893;-52
2024/01/22 01:32:47;;;;;;;0.20;0.10;;;;;;;4.25;100.00;100639.53;5058597;28;20451;-52
2024/01/22 01:35:14;;;;;;;0.20;0.20;;;;;;;4.32;100.00;100622.91;5057740;28;20438;-52
2024/01/22 01:37:40;;;;;;;0.20;0.10;;;;;;;4.47;100.00;100617.66;5057400;28;20960;-52
2024/01/22 01:40:07;;;;;;;0.20;0.10;;;;;;;4.41;100.00;100623.81;5059274;28;20454;-52
2024/01/22 01:42:34;;;;;;;0.20;0.10;;;;;;;4.57;100.00;100616.78;5041834;28;20995;-52
2024/01/22 01:45:00;;;;;;;0.20;0.10;;;;;;;4.65;100.00;100601.00;5060340;28;21023;-52
2024/01/22 01:47:27;;;;;;;0.20;0.20;;;;;;;4.62;100.00;100603.63;5063934;28;20468;-57
2024/01/22 01:49:54;;;;;;;0.20;0.10;;;;;;;4.65;100.00;100603.63;5071307;28;20453;-52
2024/01/22 01:52:21;;;;;;;0.20;0.10;;;;;;;4.76;100.00;100601.88;5070888;28;20498;-52
2024/01/22 01:54:50;;;;;;;0.20;0.10;;;;;;;4.93;100.00;100609.75;5071680;28;20538;-52
2024/01/22 01:57:17;;;;;;;0.20;0.10;;;;;;;4.84;100.00;100605.41;5072138;28;20446;-52
2024/01/22 01:59:44;;;;;;;0.20;0.13;;;;;;;4.77;100.00;100601.00;5070005;28;20450;-52
2024/01/22 02:02:10;;;;;;;0.20;0.10;;;;;;;4.87;100.00;100596.63;5069905;28;20471;-52
2024/01/22 02:04:37;;;;;;;0.20;0.17;;;;;;;4.94;100.00;100577.31;5070638;28;20520;-52
2024/01/22 02:07:03;;;;;;;0.20;0.10;;;;;;;4.85;100.00;100569.41;5063566;28;20447;-52
2024/01/22 02:09:47;;;;;;;0.20;0.20;;;;;;;4.95;100.00;100563.25;5054923;28;20873;-52
2024/01/22 02:12:15;;;;;;;0.20;0.10;;;;;;;5.08;100.00;100551.81;5055964;28;20462;-52
2024/01/22 02:14:42;;;;;;;0.20;0.10;;;;;;;4.92;100.00;100561.47;5055518;28;20524;-52
2024/01/22 02:17:09;;;;;;;0.20;0.20;;;;;;;4.96;100.00;100557.97;5055386;28;20973;-52
2024/01/22 02:19:35;;;;;;;0.20;0.10;;;;;;;5.06;100.00;100549.16;5054777;28;20535;-52
2024/01/22 02:22:02;;;;;;;0.20;0.10;;;;;;;5.09;100.00;100552.69;5054719;28;20913;-52
2024/01/22 02:24:29;;;;;;;0.20;0.10;;;;;;;5.09;100.00;100537.75;5054470;28;21007;-52
2024/01/22 02:26:55;;;;;;;0.20;0.10;;;;;;;5.04;100.00;100529.84;5054761;28;20454;-52
2024/01/22 02:29:22;;;;;;;0.20;0.10;;;;;;;5.13;100.00;100533.34;5054649;28;20455;-52
2024/01/22 02:31:52;;;;;;;0.20;0.10;;;;;;;5.14;100.00;100528.06;5054456;28;20495;-52
2024/01/22 02:34:19;;;;;;;0.20;0.10;;;;;;;5.19;100.00;100534.19;5054638;28;20942;-52
2024/01/22 02:36:46;;;;;;;0.20;0.10;;;;;;;5.01;100.00;100537.75;5062523;28;20449;-52
2024/01/22 02:39:13;;;;;;;0.20;0.10;;;;;;;5.15;100.00;100528.97;5054401;28;20464;-52
2024/01/22 02:41:40;;;;;;;0.20;0.10;;;;;;;5.14;100.00;100525.44;5054092;28;21014;-52
2024/01/22 02:44:07;;;;;;;0.20;0.10;;;;;;;5.16;100.00;100514.91;5054154;28;20447;-52
2024/01/22 02:46:33;;;;;;;1.03;1.03;;;;;;;5.28;100.00;100506.97;5054270;28;20459;-52
2024/01/22 02:49:00;;;;;;;0.20;0.13;;;;;;;5.12;100.00;100500.00;5054339;28;21023;-52
2024/01/22 02:51:26;;;;;;;0.20;0.10;;;;;;;5.07;100.00;100489.44;5058431;28;21021;-50
2024/01/22 02:53:53;;;;;;;0.20;0.10;;;;;;;5.11;100.00;100493.84;5054344;28;20483;-50
2024/01/22 02:56:20;;;;;;;0.20;0.20;;;;;;;5.12;100.00;100485.06;5054203;28;20451;-50
2024/01/22 02:58:47;;;;;;;0.20;0.20;;;;;;;5.10;100.00;100478.03;5054012;28;20542;-50
2024/01/22 03:01:14;;;;;;;0.20;0.20;;;;;;;5.20;100.00;100485.88;5053185;28;20498;-50
2024/01/22 03:03:40;;;;;;;0.20;0.13;;;;;;;5.23;100.00;100487.66;5053321;28;20886;-51
2024/01/22 03:06:08;;;;;;;0.20;0.10;;;;;;;5.11;100.00;100503.50;5053106;28;20502;-50
2024/01/22 03:08:34;;;;;;;0.20;0.10;;;;;;;4.99;100.00;100507.94;5053346;28;20471;-50
2024/01/22 03:11:01;;;;;;;0.20;0.10;;;;;;;4.86;100.00;100511.47;5052898;28;20478;-50
2024/01/22 03:13:28;;;;;;;0.20;0.10;;;;;;;4.94;100.00;100508.81;5053017;28;20489;-50
2024/01/22 03:15:54;;;;;;;0.20;0.10;;;;;;;4.62;100.00;100503.59;5052940;28;20443;-51
2024/01/22 03:18:21;;;;;;;0.20;0.10;;;;;;;4.66;100.00;100498.34;5053111;28;20439;-51
2024/01/22 03:20:48;;;;;;;0.20;0.10;;;;;;;4.49;100.00;100492.19;5052471;28;20509;-51
2024/01/22 03:23:14;;;;;;;0.20;0.10;;;;;;;4.29;100.00;100481.69;5052973;28;20474;-50
2024/01/22 03:25:41;;;;;;;0.20;0.10;;;;;;;4.25;100.00;100472.06;5052735;28;20500;-50
2024/01/22 03:28:07;;;;;;;0.20;0.20;;;;;;;4.18;100.00;100467.66;5052940;28;20915;-50
2024/01/22 03:30:34;;;;;;;0.20;0.10;;;;;;;4.34;100.00;100456.25;5053335;28;20565;-49
2024/01/22 03:33:00;;;;;;;0.20;0.10;;;;;;;4.48;100.00;100456.22;5053379;28;20473;-51
2024/01/22 03:35:27;;;;;;;0.20;0.10;;;;;;;4.71;100.00;100436.00;5053132;28;20457;-50
2024/01/22 03:37:53;;;;;;;0.20;0.10;;;;;;;4.71;100.00;100433.38;5052951;28;20482;-50
2024/01/22 03:40:20;;;;;;;0.20;0.10;;;;;;;4.80;100.00;100429.84;5053298;28;20492;-50
2024/01/22 03:42:46;;;;;;;0.20;0.10;;;;;;;5.02;100.00;100413.06;5052968;28;20564;-50
2024/01/22 03:45:14;;;;;;;0.20;0.10;;;;;;;5.08;100.00;100411.31;5052828;28;20999;-50
2024/01/22 03:47:40;;;;;;;0.20;0.10;;;;;;;5.27;100.00;100415.59;5053357;28;20451;-51
2024/01/22 03:50:07;;;;;;;0.20;0.10;;;;;;;5.40;100.00;100417.28;5052881;28;20446;-50
2024/01/22 03:52:34;;;;;;;0.20;0.10;;;;;;;5.25;100.00;100410.34;5052678;28;20482;-50
2024/01/22 03:55:02;;;;;;;0.20;0.20;;;;;;;5.32;99.27;100393.59;5035157;28;20966;-50
2024/01/22 03:57:28;;;;;;;0.20;0.20;;;;;;;5.44;99.22;100382.13;5035151;28;20546;-50
2024/01/22 03:59:54;;;;;;;0.20;0.10;;;;;;;5.46;99.35;100385.63;5052958;28;20450;-50
2024/01/22 04:02:21;;;;;;;0.20;0.13;;;;;;;5.61;98.56;100384.63;5053130;28;20494;-51
2024/01/22 04:04:48;;;;;;;0.20;0.10;;;;;;;5.76;98.75;100388.94;5052497;28;20925;-50
2024/01/22 04:07:14;;;;;;;0.20;0.13;;;;;;;5.89;98.10;100391.50;5052999;28;20453;-51
2024/01/22 04:09:40;;;;;;;0.20;0.13;;;;;;;5.83;97.54;100399.44;5052679;28;20545;-50
2024/01/22 04:12:07;;;;;;;0.20;0.10;;;;;;;5.83;97.18;100394.16;5054466;28;20525;-51
2024/01/22 04:14:33;;;;;;;0.20;0.10;;;;;;;5.72;96.68;100384.56;5036033;28;20451;-49
2024/01/22 04:17:00;;;;;;;0.20;0.20;;;;;;;5.71;96.71;100370.50;5052869;28;20504;-52
2024/01/22 04:19:26;;;;;;;0.20;0.20;;;;;;;5.94;97.26;100375.66;5052369;28;20935;-49
2024/01/22 04:21:53;;;;;;;0.20;0.10;;;;;;;5.90;97.40;100366.88;5052534;28;20471;-51
2024/01/22 04:24:19;;;;;;;0.20;0.10;;;;;;;5.88;97.26;100360.69;5052618;28;20447;-50
2024/01/22 04:26:46;;;;;;;0.20;0.10;;;;;;;5.95;96.22;100348.38;5035020;28;20504;-51
2024/01/22 04:29:12;;;;;;;0.20;0.10;;;;;;;5.86;97.03;100349.28;5052894;28;20454;-49
2024/01/22 04:31:39;;;;;;;0.20;0.20;;;;;;;5.97;96.74;100367.69;5033436;28;20473;-50
2024/01/22 04:34:05;;;;;;;0.20;0.20;;;;;;;6.07;96.96;100364.09;5051662;28;20935;-51
2024/01/22 04:36:32;;;;;;;0.20;0.10;;;;;;;6.14;97.02;100373.69;5051456;28;20443;-50
2024/01/22 04:38:59;;;;;;;0.20;0.20;;;;;;;6.02;96.18;100363.25;5051505;28;20483;-51
2024/01/22 04:41:25;;;;;;;0.20;0.13;;;;;;;6.13;96.97;100361.38;5051648;28;20983;-52
2024/01/22 04:43:52;;;;;;;0.30;0.20;;;;;;;5.92;96.79;100343.13;5051795;28;20482;-51
2024/01/22 04:46:18;;;;;;;0.20;0.10;;;;;;;6.14;97.75;100343.78;5052087;28;20494;-50
2024/01/22 04:48:44;;;;;;;0.20;0.10;;;;;;;6.18;97.32;100345.53;5052100;28;20542;-50
2024/01/22 04:51:11;;;;;;;0.20;0.20;;;;;;;6.30;97.49;100350.66;5052090;28;20506;-51
2024/01/22 04:53:38;;;;;;;0.20;0.10;;;;;;;6.36;96.93;100333.91;5052221;28;20450;-50
2024/01/22 04:56:04;;;;;;;0.20;0.10;;;;;;;6.29;97.13;100326.91;5052320;28;20458;-50
2024/01/22 04:58:31;;;;;;;0.30;0.20;;;;;;;6.19;97.13;100305.06;5039063;28;20875;-52
2024/01/22 05:00:57;;;;;;;0.20;0.20;;;;;;;6.33;97.50;100311.06;5051615;28;20569;-51
2024/01/22 05:03:24;;;;;;;0.20;0.20;;;;;;;6.39;96.83;100304.81;5051543;28;20474;-50
2024/01/22 05:05:50;;;;;;;0.20;0.10;;;;;;;6.39;96.76;100286.34;5051155;28;20497;-52
2024/01/22 05:08:17;;;;;;;0.20;0.10;;;;;;;6.41;97.41;100292.47;5051269;28;20504;-50
2024/01/22 05:10:43;;;;;;;0.20;0.10;;;;;;;6.41;97.09;100276.63;5051411;28;20477;-50
2024/01/22 05:13:10;;;;;;;0.30;0.10;;;;;;;6.45;96.28;100271.31;5033583;28;20905;-51
2024/01/22 05:15:36;;;;;;;0.20;0.10;;;;;;;6.46;97.01;100264.25;5051290;28;20450;-50
2024/01/22 05:18:03;;;;;;;0.20;0.10;;;;;;;6.35;97.05;100271.44;5051664;28;20447;-51
2024/01/22 05:20:30;;;;;;;0.20;0.10;;;;;;;6.31;97.66;100248.63;5051862;28;20952;-50
2024/01/22 05:22:56;;;;;;;0.30;0.20;;;;;;;6.33;97.56;100263.53;5051713;28;20461;-51
2024/01/22 05:25:23;;;;;;;0.23;0.20;;;;;;;6.44;97.19;100269.56;5051825;28;20867;-50
2024/01/22 05:27:49;;;;;;;0.20;0.10;;;;;;;6.49;97.87;100257.19;5034405;28;20482;-51
2024/01/22 05:30:16;;;;;;;0.23;0.20;;;;;;;6.57;96.95;100251.78;5052045;28;20481;-50
2024/01/22 05:32:42;;;;;;;0.20;0.10;;;;;;;6.66;97.04;100259.59;5051850;28;20549;-50
2024/01/22 05:35:09;;;;;;;0.30;0.20;;;;;;;6.69;96.27;100253.38;5051461;28;20954;-51
2024/01/22 05:37:35;;;;;;;0.20;0.20;;;;;;;6.66;96.96;100238.47;5043191;28;20438;-50
2024/01/22 05:40:03;;;;;;;0.20;0.10;;;;;;;6.73;96.56;100239.28;5051435;28;20575;-51
2024/01/22 05:42:30;;;;;;;0.20;0.10;;;;;;;6.75;97.43;100238.34;5051993;28;20479;-51
2024/01/22 05:44:56;;;;;;;0.27;0.10;;;;;;;6.62;97.05;100234.13;5055471;28;20496;-51
2024/01/22 05:47:23;;;;;;;0.30;0.20;;;;;;;6.61;96.79;100228.88;5055262;28;20894;-50
2024/01/22 05:49:49;;;;;;;0.30;0.20;;;;;;;6.69;96.95;100227.84;5057668;28;20829;-51
2024/01/22 05:52:16;;;;;;;0.20;0.20;;;;;;;6.73;96.69;100213.72;5054412;28;20536;-51
2024/01/22 05:54:42;;;;;;;0.30;0.10;;;;;;;6.61;96.72;100219.19;5036620;28;20901;-50
2024/01/22 05:57:09;;;;;;;0.20;0.10;;;;;;;6.65;97.38;100204.16;5055857;28;20501;-50
2024/01/22 05:59:37;;;;;;;0.30;0.20;;;;;;;6.67;98.77;100203.22;5056208;28;20474;-49
2024/01/22 06:02:04;;;;;;;0.30;0.20;;;;;;;6.79;97.74;100202.19;5054835;28;20470;-51
2024/01/22 06:04:30;;;;;;;0.20;0.10;;;;;;;6.74;98.08;100196.97;5054253;28;20537;-51
2024/01/22 06:06:57;;;;;;;0.30;0.20;;;;;;;6.71;97.95;100188.19;5054059;28;20494;-51
2024/01/22 06:09:28;;;;;;;0.20;0.17;;;;;;;6.64;97.81;100182.16;5053694;28;20500;-50
2024/01/22 06:11:54;;;;;;;0.30;0.20;;;;;;;6.76;97.91;100178.47;5053816;28;20499;-50
2024/01/22 06:14:21;;;;;;;0.30;0.20;;;;;;;6.76;97.43;100186.38;5053860;28;20500;-50
2024/01/22 06:16:47;;;;;;;0.23;0.10;;;;;;;6.72;98.42;100185.56;5053908;28;20443;-51
2024/01/22 06:19:14;;;;;;;0.20;0.20;;;;;;;6.78;98.27;100181.94;5053621;28;20446;-51
2024/01/22 06:21:40;;;;;;;0.30;0.20;;;;;;;6.80;98.04;100177.50;5053904;28;20474;-52
2024/01/22 06:24:07;;;;;;;0.30;0.20;;;;;;;6.73;99.11;100165.31;5053569;28;20546;-50
2024/01/22 06:26:33;;;;;;;0.23;0.20;;;;;;;6.75;98.83;100164.38;5053772;28;21011;-50
2024/01/22 06:29:00;;;;;;;0.20;0.20;;;;;;;6.74;98.51;100156.50;5054177;28;20541;-50
2024/01/22 06:31:26;;;;;;;0.20;0.20;;;;;;;6.82;98.66;100171.31;5054056;28;20489;-50
2024/01/22 06:33:53;;;;;;;0.30;0.20;;;;;;;6.88;99.07;100169.47;5053754;28;20456;-51
2024/01/22 06:36:19;;;;;;;0.30;0.20;;;;;;;7.01;98.01;100161.34;5053608;28;20474;-50
2024/01/22 06:38:46;;;;;;;0.30;0.20;;;;;;;7.00;98.48;100159.59;5053183;28;20534;-51
2024/01/22 06:41:12;;;;;;;0.27;0.20;;;;;;;7.01;98.19;100155.19;5053867;28;20513;-50
2024/01/22 06:43:39;;;;;;;0.30;0.20;;;;;;;7.19;98.06;100151.34;5054631;28;20446;-50
2024/01/22 06:46:05;;;;;;;0.20;0.10;;;;;;;7.17;98.19;100145.22;5055828;28;20489;-50
2024/01/22 06:48:32;;;;;;;0.30;0.20;;;;;;;7.24;98.16;100145.06;5057051;28;20451;-52
2024/01/22 06:50:59;;;;;;;0.30;0.10;;;;;;;7.37;97.54;100143.09;5053241;28;20532;-52
2024/01/22 06:53:25;;;;;;;0.30;0.10;;;;;;;7.34;97.90;100143.16;5053035;28;20948;-52
2024/01/22 06:55:52;;;;;;;0.30;0.20;;;;;;;7.20;99.31;100147.81;5052563;28;20509;-52
2024/01/22 06:58:20;;;;;;;0.20;0.10;;;;;;;7.21;99.20;100154.84;5053131;28;20451;-52
2024/01/22 07:00:47;;;;;;;0.30;0.10;;;;;;;7.23;99.41;100159.19;5053129;28;20903;-51
2024/01/22 07:03:14;;;;;;;0.20;0.20;;;;;;;7.30;98.81;100166.13;5052974;28;20458;-52
2024/01/22 07:05:41;;;;;;;0.20;0.10;;;;;;;7.13;100.00;100157.63;5052806;28;20490;-51
2024/01/22 07:08:08;;;;;;;0.30;0.20;;;;;;;7.16;100.00;100161.97;5052890;28;20481;-51
2024/01/22 07:10:36;;;;;;;0.30;0.20;;;;;;;7.15;100.00;100158.47;5052692;28;21035;-51
2024/01/22 07:13:03;;;;;;;0.30;0.20;;;;;;;7.19;100.00;100157.50;5052586;28;20533;-51
2024/01/22 07:15:29;;;;;;;0.20;0.20;;;;;;;7.11;100.00;100167.31;5052689;28;21006;-51
2024/01/22 07:17:56;;;;;;;0.30;0.20;;;;;;;7.17;100.00;100163.72;5052855;28;20458;-50
2024/01/22 07:20:23;;;;;;;0.30;0.10;;;;;;;7.16;100.00;100170.78;5055968;28;20446;-50
2024/01/22 07:22:49;;;;;;;0.30;0.20;;;;;;;7.23;100.00;100161.84;5053482;28;20459;-52
2024/01/22 07:25:16;;;;;;;0.30;0.20;;;;;;;7.14;100.00;100164.66;5054409;28;20505;-50
2024/01/22 07:27:44;;;;;;;0.30;0.20;;;;;;;7.08;100.00;100168.25;5052046;28;20490;-52
2024/01/22 07:30:12;;;;;;;0.30;0.20;;;;;;;7.17;100.00;100169.88;5052416;28;20526;-50
2024/01/22 07:32:42;;;;;;;0.30;0.20;;;;;;;7.18;100.00;100176.91;5039323;28;20471;-52
2024/01/22 07:35:10;;;;;;;0.30;0.10;;;;;;;7.29;100.00;100172.31;5052340;28;20450;-52
2024/01/22 07:37:44;;;;;;;0.20;0.10;;;;;;;7.26;100.00;100167.06;5052164;28;20525;-52
2024/01/22 07:40:12;;;;;;;0.30;0.20;;;;;;;7.22;100.00;100175.09;5052462;28;20458;-52
2024/01/22 07:42:41;;;;;;;0.30;0.17;;;;;;;7.26;100.00;100176.75;5052619;28;20475;-51
2024/01/22 07:45:09;;;;;;;0.30;0.20;;;;;;;7.24;100.00;100187.38;5052405;28;20533;-52
2024/01/22 07:47:36;;;;;;;0.30;0.20;;;;;;;7.15;100.00;100197.25;5052226;28;20497;-51
2024/01/22 07:50:05;;;;;;;0.30;0.20;;;;;;;7.31;100.00;100188.16;5051879;28;20486;-52
2024/01/22 07:52:35;;;;;;;0.30;0.20;;;;;;;7.16;100.00;100194.56;5052243;28;20482;-52
2024/01/22 07:55:02;;;;;;;0.30;0.20;;;;;;;7.32;100.00;100200.47;5052706;28;20538;-52
2024/01/22 07:57:29;;;;;;;0.30;0.20;;;;;;;7.39;100.00;100194.16;5052738;28;20852;-50
2024/01/22 07:59:55;;;;;;;0.30;0.20;;;;;;;7.35;100.00;100193.34;5052285;28;20474;-51
2024/01/22 08:02:22;;;;;;;0.27;0.20;;;;;;;7.38;100.00;100197.72;5052113;28;20843;-51
2024/01/22 08:04:50;;;;;;;0.20;0.20;;;;;;;7.40;100.00;100194.16;5052366;28;20520;-51
2024/01/22 08:07:17;;;;;;;0.30;0.20;;;;;;;7.43;100.00;100188.81;5050976;28;20487;-50
2024/01/22 08:09:46;;;;;;;0.30;0.20;;;;;;;7.42;100.00;100189.72;5051934;28;20454;-51
2024/01/22 08:12:13;;;;;;;0.30;0.20;;;;;;;7.53;100.00;100191.28;5034113;28;21004;-52
2024/01/22 08:14:39;;;;;;;0.30;0.20;;;;;;;7.39;100.00;100196.81;5051607;28;21034;-51
2024/01/22 08:17:06;;;;;;;0.30;0.20;;;;;;;7.42;100.00;100188.84;5051866;28;20458;-51
2024/01/22 08:19:34;;;;;;;0.30;0.20;;;;;;;7.43;100.00;100185.31;5051999;28;20486;-51
2024/01/22 08:22:02;;;;;;;0.30;0.20;;;;;;;7.54;100.00;100193.94;5034755;28;20553;-51
2024/01/22 08:24:30;;;;;;;0.30;0.20;;;;;;;7.54;100.00;100185.09;5052198;28;20456;-52
2024/01/22 08:26:56;;;;;;;0.30;0.20;;;;;;;7.56;100.00;100181.53;5052264;28;20498;-52
2024/01/22 08:29:23;;;;;;;0.30;0.10;;;;;;;7.49;100.00;100179.03;5051585;28;20470;-52
2024/01/22 08:31:49;;;;;;;0.30;0.20;;;;;;;7.49;100.00;100187.81;5051652;28;20477;-51
2024/01/22 08:34:16;;;;;;;0.30;0.20;;;;;;;7.59;100.00;100173.53;5051547;28;20455;-51
2024/01/22 08:36:42;;;;;;;0.30;0.20;;;;;;;7.51;100.00;100177.22;5051132;28;20447;-51
2024/01/22 08:39:09;;;;;;;0.30;0.20;;;;;;;7.59;100.00;100176.19;5051370;28;20459;-51
2024/01/22 08:41:39;;;;;;;0.30;0.20;;;;;;;7.72;100.00;100179.47;5051144;28;21019;-53
2024/01/22 08:44:06;;;;;;;0.30;0.20;;;;;;;7.54;100.00;100171.88;5051566;28;20825;-50
2024/01/22 08:46:34;;;;;;;0.30;0.20;;;;;;;7.62;100.00;100176.13;5052513;28;20569;-51
2024/01/22 08:49:00;;;;;;;0.30;0.20;;;;;;;7.69;100.00;100182.19;5051488;28;21093;-50
2024/01/22 08:51:28;;;;;;;0.30;0.20;;;;;;;7.70;100.00;100178.66;5051522;28;20525;-54
2024/01/22 08:53:55;;;;;;;0.30;0.20;;;;;;;7.63;100.00;100169.06;5034164;28;20505;-53
2024/01/22 08:56:21;;;;;;;0.30;0.20;;;;;;;7.69;100.00;100171.63;5051910;28;20542;-53
2024/01/22 08:58:47;;;;;;;0.30;0.20;;;;;;;7.76;100.00;100175.00;5052131;28;20978;-53
2024/01/22 09:01:14;;;;;;;0.30;0.20;;;;;;;7.70;100.00;100179.50;5051163;28;20481;-53
2024/01/22 09:03:40;;;;;;;0.30;0.20;;;;;;;7.86;100.00;100174.81;5051200;28;20939;-53
2024/01/22 09:06:07;;;;;;;0.30;0.20;;;;;;;7.76;100.00;100170.56;5051276;28;20490;-53
2024/01/22 09:08:34;;;;;;;0.30;0.20;;;;;;;7.77;100.00;100166.16;5052284;28;20476;-53
2024/01/22 09:11:02;;;;;;;0.30;0.20;;;;;;;7.75;100.00;100176.78;5052112;28;21095;-52
2024/01/22 09:13:29;;;;;;;0.30;0.20;;;;;;;7.79;100.00;100164.34;5051990;28;20458;-52
2024/01/22 09:15:57;;;;;;;0.30;0.20;;;;;;;7.93;100.00;100155.25;5034344;28;20426;-53
2024/01/22 09:18:24;;;;;;;0.30;0.20;;;;;;;7.97;100.00;100164.88;5053440;28;20529;-54
2024/01/22 09:20:52;;;;;;;0.30;0.20;;;;;;;7.83;100.00;100166.06;5055037;28;20640;-53
2024/01/22 09:23:18;;;;;;;0.30;0.20;;;;;;;7.85;100.00;100166.91;5055137;28;20542;-53
2024/01/22 09:25:45;;;;;;;0.30;0.20;;;;;;;7.88;100.00;100156.25;5055003;28;20454;-53
2024/01/22 09:28:13;;;;;;;0.30;0.20;;;;;;;8.01;100.00;100155.97;5055682;28;20533;-53
2024/01/22 09:30:41;;;;;;;0.30;0.20;;;;;;;8.16;100.00;100151.25;5054516;28;20455;-53
2024/01/22 09:33:09;;;;;;;0.30;0.20;;;;;;;8.02;100.00;100146.25;5054737;28;20983;-52
2024/01/22 09:35:38;;;;;;;0.30;0.20;;;;;;;7.98;100.00;100137.50;5054789;28;20450;-53
2024/01/22 09:38:05;;;;;;;0.30;0.20;;;;;;;7.86;100.00;100137.75;5046760;28;20494;-53
2024/01/22 09:40:33;;;;;;;0.30;0.20;;;;;;;7.84;100.00;100128.97;5054869;28;20460;-53
2024/01/22 09:43:03;;;;;;;0.30;0.20;;;;;;;7.80;100.00;100140.50;5054771;28;20927;-53
2024/01/22 09:45:33;;;;;;;0.30;0.20;;;;;;;8.03;100.00;100134.75;5054750;28;20941;-53
2024/01/22 09:48:00;;;;;;;0.30;0.20;;;;;;;8.08;100.00;100132.00;5054560;28;20490;-53
2024/01/22 09:50:27;;;;;;;0.30;0.20;;;;;;;8.04;100.00;100139.16;5054507;28;20457;-53
2024/01/22 09:53:00;;;;;;;0.30;0.20;;;;;;;8.04;100.00;100131.22;5054132;28;20530;-52
2024/01/22 09:55:27;;;;;;;0.30;0.20;;;;;;;7.95;100.00;100134.06;5054540;28;20516;-51
2024/01/22 09:57:58;;;;;;;0.30;0.20;;;;;;;7.96;100.00;100127.88;5054052;28;20963;-53
2024/01/22 10:00:26;;;;;;;0.30;0.10;;;;;;;8.09;100.00;100133.78;5036389;28;20905;-53
2024/01/22 10:02:56;;;;;;;0.30;0.20;;;;;;;7.97;100.00;100121.66;5053975;28;20541;-53
2024/01/22 10:05:23;;;;;;;0.30;0.20;;;;;;;8.20;100.00;100129.97;5054177;28;20541;-53
2024/01/22 10:07:49;;;;;;;0.30;0.20;;;;;;;8.14;100.00;100116.88;5053649;28;20486;-53
2024/01/22 10:10:16;;;;;;;0.30;0.20;;;;;;;8.06;100.00;100118.81;5053980;28;20455;-53
2024/01/22 10:13:08;;;;;;;0.30;0.20;;;;;;;7.95;100.00;100112.88;5053978;28;20474;-53
2024/01/22 10:15:35;;;;;;;0.30;0.20;;;;;;;7.97;100.00;100114.59;5054313;28;20451;-53
2024/01/22 10:18:16;;;;;;;0.30;0.20;;;;;;;7.98;100.00;100107.53;5040856;28;20454;-53
2024/01/22 10:20:45;;;;;;;0.30;0.20;;;;;;;8.08;100.00;100098.47;5053542;28;20502;-53
2024/01/22 10:23:13;;;;;;;0.30;0.20;;;;;;;8.10;100.00;100087.88;5054261;28;20478;-54
2024/01/22 10:25:42;;;;;;;0.30;0.20;;;;;;;8.07;100.00;100082.63;5054004;28;20451;-54
2024/01/22 10:28:19;;;;;;;0.30;0.20;;;;;;;8.18;100.00;100088.56;5054187;28;20495;-54
2024/01/22 10:31:02;;;;;;;0.30;0.20;;;;;;;8.19;100.00;100074.41;5052942;28;20533;-53
2024/01/22 10:33:29;;;;;;;0.30;0.20;;;;;;;8.12;100.00;100072.81;5053923;28;20457;-53
2024/01/22 10:36:14;;;;;;;0.30;0.20;;;;;;;8.15;100.00;100072.75;5054342;28;20453;-53
2024/01/22 10:38:41;;;;;;;0.30;0.20;;;;;;;8.19;100.00;100079.69;5053623;28;20517;-53
2024/01/22 10:41:20;;;;;;;0.30;0.20;;;;;;;8.11;100.00;100071.94;5053398;28;20479;-53
2024/01/22 10:43:47;;;;;;;0.30;0.20;;;;;;;8.03;100.00;100072.09;5053271;28;20477;-53
2024/01/22 10:46:15;;;;;;;0.30;0.20;;;;;;;8.15;100.00;100062.16;5053667;28;21257;-53
2024/01/22 10:48:43;;;;;;;0.30;0.20;;;;;;;8.15;100.00;100056.84;5053227;28;20860;-53
2024/01/22 10:51:14;;;;;;;0.30;0.20;;;;;;;8.17;100.00;100058.56;5053008;28;20532;-52
2024/01/22 10:53:41;;;;;;;0.30;0.20;;;;;;;8.15;100.00;100041.84;5040230;28;20529;-53
2024/01/22 10:56:17;;;;;;;0.30;0.20;;;;;;;8.18;100.00;100046.19;5052995;28;20457;-55
2024/01/22 10:58:45;;;;;;;0.30;0.20;;;;;;;8.19;100.00;100037.34;5053286;28;20492;-53
2024/01/22 11:01:22;;;;;;;0.30;0.20;;;;;;;8.17;100.00;100028.56;5053070;28;20521;-53
2024/01/22 11:03:50;;;;;;;0.30;0.20;;;;;;;8.21;100.00;100017.00;5053087;28;20813;-53
2024/01/22 11:06:32;;;;;;;0.30;0.20;;;;;;;8.23;100.00;100020.50;5053206;28;20538;-53
2024/01/22 11:09:03;;;;;;;0.30;0.20;;;;;;;8.26;100.00;100008.06;5053070;28;20446;-52
2024/01/22 11:11:35;;;;;;;0.30;0.20;;;;;;;8.32;100.00;100002.59;5053004;28;20517;-52
2024/01/22 11:14:02;;;;;;;0.30;0.20;;;;;;;8.34;100.00;100013.19;5052875;28;20533;-52
2024/01/22 11:16:30;;;;;;;0.30;0.20;;;;;;;8.32;100.00;100002.59;5052846;28;21088;-53
2024/01/22 11:19:02;;;;;;;0.30;0.20;;;;;;;8.30;100.00;100001.78;5052693;28;20426;-53
2024/01/22 11:21:35;;;;;;;0.30;0.20;;;;;;;8.37;100.00;100002.53;5053063;28;20470;-53
2024/01/22 11:24:16;;;;;;;0.30;0.20;;;;;;;8.42;100.00;99999.78;5052825;28;20447;-53
2024/01/22 11:26:51;;;;;;;0.30;0.20;;;;;;;8.50;100.00;99997.81;5052730;28;20573;-54
2024/01/22 11:29:24;;;;;;;0.30;0.20;;;;;;;8.64;100.00;99997.47;5039630;28;20943;-54